Amboy, IL (61310)

9:06 AM CDT on July 23, 2017 (GMT -0500)
wymanns add | | Change Station
Active Advisory: Flood Warning

Elev 750 ft 41.72 °N, 89.33 °W | Updated 32 seconds ago

Partly Cloudy
Partly Cloudy
77.0 °F
Feels Like 78 °F
N
6.3
Wind Variable Wind from West

Today
High -- | Low -- °F
--% Chance of Precip.
Yesterday
High -- | Low -- °F
Precip. -- in
Pressure 29.87 in
Visibility 10.0 miles
Clouds Scattered Clouds 600 ft
Heat Index 78 °F
Dew Point 72 °F
Humidity 86%
Rainfall 0.00 in
Snow Depth Not available.
5:43 AM 8:23 PM
New Moon, 0% visible
METAR KSQI 231356Z 25007KT 10SM SCT006 25/23 A2984 RMK AO2 SLP115 T02500233
Pressure 29.87 in
Visibility 10.0 miles
Clouds Scattered Clouds 600 ft
Heat Index 78 °F
Dew Point 72 °F
Humidity 86%
Rainfall 0.00 in
Snow Depth Not available.
5:43 AM 8:23 PM
New Moon, 0% visible
METAR KSQI 231356Z 25007KT 10SM SCT006 25/23 A2984 RMK AO2 SLP115 T02500233

Get Your Daily Forecast Email!

Thanks for signing up!

Be on the lookout for a verification email in your inbox.

You'll start receiving severe weather alerts in your inbox..

×

10-Day Weather Forecast

Almanac

Astronomy

Jul. 23, 2017 Rise Set
Actual Time
Civil Twilight
Nautical Twilight
Astronomical Twilight
Moon
Length of Visible Light
Length of Day
Tomorrow will be .
, % of the Moon is Illuminated

Today's Extremes

State Highs State Lows

Community

WunderPhotos

Category 6

Welcome to Category 6. This is the collective home for Weather Underground's featured writeups by Dr. Jeff Masters (right), Bob Henson (left), Chris Burt, and other regular contributors.

Nearby

Air Quality

  Air Quality AQ Index Pollutant
Not available.

Snow Depth

Station Depth Elevation

Earthquake Activity

City Distance Mag. Time & Date
Minimum magnitude displayed is 2.5.

Coastal Water Temperatures

Place Temperature

Stations

Nearby Weather Stations

Station Location Temp. Windchill Dew Point Humidity Wind Precip. Elev Updated Type
                   

Watches & Warnings

Flood Warning
Issued: 9:37 PM CDT Jul. 22, 2017 – National Weather Service

The Flood Warning continues for
the Rock River at Dixon.
* Until Monday evening.
* At 915 PM Saturday the stage was 17.7 feet.
* Flood stage is 16.0 feet.
* Minor flooding is occurring and minor flooding is forecast.
* Forecast... the river is cresting near 17.7 the river will fall
below flood stage by Monday afternoon.
* Impact... at 18.0 feet... flooding affects basement of Dixon High
School.


Lat... Lon 4193 8933 4183 8943 4176 8962 4183 8963
      4190 8950 4196 8942